sensor_id;sensor_type;location;lat;lon;timestamp;temperature;humidity
36450;DHT22;22475;51.390;7.180;2023-11-21T00:00:23;13.30;89.30
36450;DHT22;22475;51.390;7.180;2023-11-21T00:02:50;13.30;89.10
36450;DHT22;22475;51.390;7.180;2023-11-21T00:05:17;13.20;89.10
36450;DHT22;22475;51.390;7.180;2023-11-21T00:07:45;13.20;89.00
36450;DHT22;22475;51.390;7.180;2023-11-21T00:10:12;13.20;89.00
36450;DHT22;22475;51.390;7.180;2023-11-21T00:12:41;13.20;88.80
36450;DHT22;22475;51.390;7.180;2023-11-21T00:15:09;13.20;88.70
36450;DHT22;22475;51.390;7.180;2023-11-21T00:17:37;13.20;88.90
36450;DHT22;22475;51.390;7.180;2023-11-21T00:20:05;13.20;89.00
36450;DHT22;22475;51.390;7.180;2023-11-21T00:22:33;13.20;89.20
36450;DHT22;22475;51.390;7.180;2023-11-21T00:25:01;13.20;89.30
36450;DHT22;22475;51.390;7.180;2023-11-21T00:27:29;13.20;89.20
36450;DHT22;22475;51.390;7.180;2023-11-21T00:29:56;13.20;89.10
36450;DHT22;22475;51.390;7.180;2023-11-21T00:32:22;13.20;89.20
36450;DHT22;22475;51.390;7.180;2023-11-21T00:34:49;13.20;89.20
36450;DHT22;22475;51.390;7.180;2023-11-21T00:37:16;13.20;89.40
36450;DHT22;22475;51.390;7.180;2023-11-21T00:39:43;13.20;89.30
36450;DHT22;22475;51.390;7.180;2023-11-21T00:42:11;13.20;89.40
36450;DHT22;22475;51.390;7.180;2023-11-21T00:44:38;13.20;89.40
36450;DHT22;22475;51.390;7.180;2023-11-21T00:47:05;13.20;89.50
36450;DHT22;22475;51.390;7.180;2023-11-21T00:49:33;13.20;89.60
36450;DHT22;22475;51.390;7.180;2023-11-21T00:52:00;13.20;89.60
36450;DHT22;22475;51.390;7.180;2023-11-21T00:54:28;13.20;89.60
36450;DHT22;22475;51.390;7.180;2023-11-21T00:56:55;13.20;89.80
36450;DHT22;22475;51.390;7.180;2023-11-21T00:59:23;13.20;89.80
36450;DHT22;22475;51.390;7.180;2023-11-21T01:01:50;13.20;89.80
36450;DHT22;22475;51.390;7.180;2023-11-21T01:04:16;13.20;90.00
36450;DHT22;22475;51.390;7.180;2023-11-21T01:06:43;13.20;89.90
36450;DHT22;22475;51.390;7.180;2023-11-21T01:09:10;13.20;90.00
36450;DHT22;22475;51.390;7.180;2023-11-21T01:11:38;13.20;90.10
36450;DHT22;22475;51.390;7.180;2023-11-21T01:14:05;13.30;90.20
36450;DHT22;22475;51.390;7.180;2023-11-21T01:16:33;13.20;90.10
36450;DHT22;22475;51.390;7.180;2023-11-21T01:19:00;13.30;90.10
36450;DHT22;22475;51.390;7.180;2023-11-21T01:21:27;13.20;90.10
36450;DHT22;22475;51.390;7.180;2023-11-21T01:23:54;13.30;90.50
36450;DHT22;22475;51.390;7.180;2023-11-21T01:26:21;13.30;90.20
36450;DHT22;22475;51.390;7.180;2023-11-21T01:28:48;13.20;90.20
36450;DHT22;22475;51.390;7.180;2023-11-21T01:31:15;13.20;90.20
36450;DHT22;22475;51.390;7.180;2023-11-21T01:33:43;13.20;90.30
36450;DHT22;22475;51.390;7.180;2023-11-21T01:36:10;13.30;90.30
36450;DHT22;22475;51.390;7.180;2023-11-21T01:38:37;13.30;90.30
36450;DHT22;22475;51.390;7.180;2023-11-21T01:41:03;13.30;90.40
36450;DHT22;22475;51.390;7.180;2023-11-21T01:43:30;13.30;90.70
36450;DHT22;22475;51.390;7.180;2023-11-21T01:45:57;13.30;90.40
36450;DHT22;22475;51.390;7.180;2023-11-21T01:48:25;13.30;90.40
36450;DHT22;22475;51.390;7.180;2023-11-21T01:50:54;13.30;90.30
36450;DHT22;22475;51.390;7.180;2023-11-21T01:53:23;13.30;90.30
36450;DHT22;22475;51.390;7.180;2023-11-21T01:55:51;13.30;90.30
36450;DHT22;22475;51.390;7.180;2023-11-21T01:58:19;13.30;90.40
36450;DHT22;22475;51.390;7.180;2023-11-21T02:00:47;13.30;90.40
36450;DHT22;22475;51.390;7.180;2023-11-21T02:03:16;13.30;90.40
36450;DHT22;22475;51.390;7.180;2023-11-21T02:05:43;13.30;90.50
36450;DHT22;22475;51.390;7.180;2023-11-21T02:08:11;13.30;90.40
36450;DHT22;22475;51.390;7.180;2023-11-21T02:10:38;13.30;90.30
36450;DHT22;22475;51.390;7.180;2023-11-21T02:13:04;13.30;90.30
36450;DHT22;22475;51.390;7.180;2023-11-21T02:15:31;13.30;90.30
36450;DHT22;22475;51.390;7.180;2023-11-21T02:17:58;13.30;90.20
36450;DHT22;22475;51.390;7.180;2023-11-21T02:20:26;13.30;90.30
36450;DHT22;22475;51.390;7.180;2023-11-21T02:22:56;13.30;90.30
36450;DHT22;22475;51.390;7.180;2023-11-21T02:25:24;13.30;90.30
36450;DHT22;22475;51.390;7.180;2023-11-21T02:27:51;13.30;90.30
36450;DHT22;22475;51.390;7.180;2023-11-21T02:30:20;13.30;90.30
36450;DHT22;22475;51.390;7.180;2023-11-21T02:32:47;13.30;90.30
36450;DHT22;22475;51.390;7.180;2023-11-21T02:35:14;13.30;90.30
36450;DHT22;22475;51.390;7.180;2023-11-21T02:37:41;13.30;90.30
36450;DHT22;22475;51.390;7.180;2023-11-21T02:40:10;13.30;90.30
36450;DHT22;22475;51.390;7.180;2023-11-21T02:42:38;13.30;90.30
36450;DHT22;22475;51.390;7.180;2023-11-21T02:45:06;13.30;90.30
36450;DHT22;22475;51.390;7.180;2023-11-21T02:47:33;13.30;90.30
36450;DHT22;22475;51.390;7.180;2023-11-21T02:50:00;13.30;90.30
36450;DHT22;22475;51.390;7.180;2023-11-21T02:52:27;13.30;90.30
36450;DHT22;22475;51.390;7.180;2023-11-21T02:54:54;13.30;90.30
36450;DHT22;22475;51.390;7.180;2023-11-21T02:57:22;13.30;90.30
36450;DHT22;22475;51.390;7.180;2023-11-21T02:59:48;13.30;90.20
36450;DHT22;22475;51.390;7.180;2023-11-21T03:02:15;13.30;90.20
36450;DHT22;22475;51.390;7.180;2023-11-21T03:04:42;13.30;90.20
36450;DHT22;22475;51.390;7.180;2023-11-21T03:07:09;13.30;90.20
36450;DHT22;22475;51.390;7.180;2023-11-21T03:09:36;13.30;90.20
36450;DHT22;22475;51.390;7.180;2023-11-21T03:12:03;13.30;90.30
36450;DHT22;22475;51.390;7.180;2023-11-21T03:14:32;13.30;90.30
36450;DHT22;22475;51.390;7.180;2023-11-21T03:16:59;13.30;90.30
36450;DHT22;22475;51.390;7.180;2023-11-21T03:19:25;13.30;90.30
36450;DHT22;22475;51.390;7.180;2023-11-21T03:21:52;13.30;90.30
36450;DHT22;22475;51.390;7.180;2023-11-21T03:24:19;13.30;90.40
36450;DHT22;22475;51.390;7.180;2023-11-21T03:26:48;13.30;90.40
36450;DHT22;22475;51.390;7.180;2023-11-21T03:29:15;13.30;90.40
36450;DHT22;22475;51.390;7.180;2023-11-21T03:31:43;13.30;90.40
36450;DHT22;22475;51.390;7.180;2023-11-21T03:34:15;13.30;90.40
36450;DHT22;22475;51.390;7.180;2023-11-21T03:36:43;13.30;90.30
36450;DHT22;22475;51.390;7.180;2023-11-21T03:39:09;13.30;90.30
36450;DHT22;22475;51.390;7.180;2023-11-21T03:41:36;13.30;90.30
36450;DHT22;22475;51.390;7.180;2023-11-21T03:44:03;13.30;90.30
36450;DHT22;22475;51.390;7.180;2023-11-21T03:46:30;13.20;90.30
36450;DHT22;22475;51.390;7.180;2023-11-21T03:48:58;13.30;90.40
36450;DHT22;22475;51.390;7.180;2023-11-21T03:51:25;13.30;90.40
36450;DHT22;22475;51.390;7.180;2023-11-21T03:53:52;13.30;90.40
36450;DHT22;22475;51.390;7.180;2023-11-21T03:56:19;13.30;90.50
36450;DHT22;22475;51.390;7.180;2023-11-21T03:58:47;13.30;90.40
36450;DHT22;22475;51.390;7.180;2023-11-21T04:01:19;13.30;90.40
36450;DHT22;22475;51.390;7.180;2023-11-21T04:03:47;13.30;90.40
36450;DHT22;22475;51.390;7.180;2023-11-21T04:06:15;13.30;90.50
36450;DHT22;22475;51.390;7.180;2023-11-21T04:08:42;13.30;90.50
36450;DHT22;22475;51.390;7.180;2023-11-21T04:11:09;13.30;90.50
36450;DHT22;22475;51.390;7.180;2023-11-21T04:13:37;13.30;90.40
36450;DHT22;22475;51.390;7.180;2023-11-21T04:16:06;13.30;90.40
36450;DHT22;22475;51.390;7.180;2023-11-21T04:18:33;13.30;90.40
36450;DHT22;22475;51.390;7.180;2023-11-21T04:21:00;13.30;90.40
36450;DHT22;22475;51.390;7.180;2023-11-21T04:23:29;13.30;90.40
36450;DHT22;22475;51.390;7.180;2023-11-21T04:25:57;13.30;90.50
36450;DHT22;22475;51.390;7.180;2023-11-21T04:28:24;13.30;90.50
36450;DHT22;22475;51.390;7.180;2023-11-21T04:30:51;13.30;90.50
36450;DHT22;22475;51.390;7.180;2023-11-21T04:33:17;13.30;90.50
36450;DHT22;22475;51.390;7.180;2023-11-21T04:35:44;13.40;90.50
36450;DHT22;22475;51.390;7.180;2023-11-21T04:38:11;13.30;90.50
36450;DHT22;22475;51.390;7.180;2023-11-21T04:40:40;13.30;90.40
36450;DHT22;22475;51.390;7.180;2023-11-21T04:43:06;13.30;90.40
36450;DHT22;22475;51.390;7.180;2023-11-21T04:45:33;13.30;90.40
36450;DHT22;22475;51.390;7.180;2023-11-21T04:48:00;13.30;90.50
36450;DHT22;22475;51.390;7.180;2023-11-21T04:50:26;13.30;90.40
36450;DHT22;22475;51.390;7.180;2023-11-21T04:52:53;13.30;90.30
36450;DHT22;22475;51.390;7.180;2023-11-21T04:55:20;13.30;90.30
36450;DHT22;22475;51.390;7.180;2023-11-21T04:57:48;13.30;90.40
36450;DHT22;22475;51.390;7.180;2023-11-21T05:00:15;13.30;90.40
36450;DHT22;22475;51.390;7.180;2023-11-21T05:02:42;13.30;90.40
36450;DHT22;22475;51.390;7.180;2023-11-21T05:05:10;13.30;90.40
36450;DHT22;22475;51.390;7.180;2023-11-21T05:07:36;13.30;90.30
36450;DHT22;22475;51.390;7.180;2023-11-21T05:10:04;13.30;90.30
36450;DHT22;22475;51.390;7.180;2023-11-21T05:12:36;13.30;90.20
36450;DHT22;22475;51.390;7.180;2023-11-21T05:15:06;13.30;90.10
36450;DHT22;22475;51.390;7.180;2023-11-21T05:17:35;13.30;90.30
36450;DHT22;22475;51.390;7.180;2023-11-21T05:20:02;13.30;89.80
36450;DHT22;22475;51.390;7.180;2023-11-21T05:22:34;13.30;89.60
36450;DHT22;22475;51.390;7.180;2023-11-21T05:25:01;13.30;89.40
36450;DHT22;22475;51.390;7.180;2023-11-21T05:27:29;13.30;89.10
36450;DHT22;22475;51.390;7.180;2023-11-21T05:29:56;13.30;89.00
36450;DHT22;22475;51.390;7.180;2023-11-21T05:32:24;13.20;88.70
36450;DHT22;22475;51.390;7.180;2023-11-21T05:34:51;13.20;88.90
36450;DHT22;22475;51.390;7.180;2023-11-21T05:37:18;13.20;89.10
36450;DHT22;22475;51.390;7.180;2023-11-21T05:39:45;13.20;89.20
36450;DHT22;22475;51.390;7.180;2023-11-21T05:42:12;13.20;89.30
36450;DHT22;22475;51.390;7.180;2023-11-21T05:44:42;13.10;89.20
36450;DHT22;22475;51.390;7.180;2023-11-21T05:47:09;13.20;89.30
36450;DHT22;22475;51.390;7.180;2023-11-21T05:49:37;13.20;89.30
36450;DHT22;22475;51.390;7.180;2023-11-21T05:52:04;13.10;89.20
36450;DHT22;22475;51.390;7.180;2023-11-21T05:54:31;13.10;89.20
36450;DHT22;22475;51.390;7.180;2023-11-21T05:56:59;13.20;89.30
36450;DHT22;22475;51.390;7.180;2023-11-21T05:59:26;13.10;89.30
36450;DHT22;22475;51.390;7.180;2023-11-21T06:01:52;13.20;89.40
36450;DHT22;22475;51.390;7.180;2023-11-21T06:04:19;13.20;90.10
36450;DHT22;22475;51.390;7.180;2023-11-21T06:06:51;13.10;89.80
36450;DHT22;22475;51.390;7.180;2023-11-21T06:09:17;13.10;90.00
36450;DHT22;22475;51.390;7.180;2023-11-21T06:11:44;13.10;90.00
36450;DHT22;22475;51.390;7.180;2023-11-21T06:14:11;13.20;90.00
36450;DHT22;22475;51.390;7.180;2023-11-21T06:16:37;13.10;89.80
36450;DHT22;22475;51.390;7.180;2023-11-21T06:19:05;13.20;89.80
36450;DHT22;22475;51.390;7.180;2023-11-21T06:21:32;13.20;89.80
36450;DHT22;22475;51.390;7.180;2023-11-21T06:24:00;13.20;89.80
36450;DHT22;22475;51.390;7.180;2023-11-21T06:26:27;13.20;89.80
36450;DHT22;22475;51.390;7.180;2023-11-21T06:28:54;13.20;89.80
36450;DHT22;22475;51.390;7.180;2023-11-21T06:31:22;13.20;89.90
36450;DHT22;22475;51.390;7.180;2023-11-21T06:33:49;13.20;90.30
36450;DHT22;22475;51.390;7.180;2023-11-21T06:36:17;13.20;90.00
36450;DHT22;22475;51.390;7.180;2023-11-21T06:38:44;13.20;90.10
36450;DHT22;22475;51.390;7.180;2023-11-21T06:41:12;13.20;90.10
36450;DHT22;22475;51.390;7.180;2023-11-21T06:43:41;13.20;90.20
36450;DHT22;22475;51.390;7.180;2023-11-21T06:46:10;13.20;90.20
36450;DHT22;22475;51.390;7.180;2023-11-21T06:48:40;13.20;90.30
36450;DHT22;22475;51.390;7.180;2023-11-21T06:51:07;13.20;90.30
36450;DHT22;22475;51.390;7.180;2023-11-21T06:53:33;13.20;90.30
36450;DHT22;22475;51.390;7.180;2023-11-21T06:56:00;13.20;90.80
36450;DHT22;22475;51.390;7.180;2023-11-21T06:58:28;13.30;90.40
36450;DHT22;22475;51.390;7.180;2023-11-21T07:00:55;13.20;90.40
36450;DHT22;22475;51.390;7.180;2023-11-21T07:03:24;13.20;90.40
36450;DHT22;22475;51.390;7.180;2023-11-21T07:05:51;13.30;90.50
36450;DHT22;22475;51.390;7.180;2023-11-21T07:08:18;13.20;90.60
36450;DHT22;22475;51.390;7.180;2023-11-21T07:10:45;13.20;90.60
36450;DHT22;22475;51.390;7.180;2023-11-21T07:13:12;13.30;90.70
36450;DHT22;22475;51.390;7.180;2023-11-21T07:15:40;13.30;90.70
36450;DHT22;22475;51.390;7.180;2023-11-21T07:18:07;13.30;90.70
36450;DHT22;22475;51.390;7.180;2023-11-21T07:20:34;13.30;90.80
36450;DHT22;22475;51.390;7.180;2023-11-21T07:23:01;13.30;90.80
36450;DHT22;22475;51.390;7.180;2023-11-21T07:25:29;13.30;90.70
36450;DHT22;22475;51.390;7.180;2023-11-21T07:27:55;13.30;90.70
36450;DHT22;22475;51.390;7.180;2023-11-21T07:30:22;13.30;90.70
36450;DHT22;22475;51.390;7.180;2023-11-21T07:32:50;13.30;90.80
36450;DHT22;22475;51.390;7.180;2023-11-21T07:35:17;13.30;90.90
36450;DHT22;22475;51.390;7.180;2023-11-21T07:37:44;13.30;90.90
36450;DHT22;22475;51.390;7.180;2023-11-21T07:40:13;13.30;90.90
36450;DHT22;22475;51.390;7.180;2023-11-21T07:42:40;13.30;90.80
36450;DHT22;22475;51.390;7.180;2023-11-21T07:45:08;13.40;90.90
36450;DHT22;22475;51.390;7.180;2023-11-21T07:47:35;13.30;90.90
36450;DHT22;22475;51.390;7.180;2023-11-21T07:50:04;13.40;91.00
36450;DHT22;22475;51.390;7.180;2023-11-21T07:52:32;13.30;91.00
36450;DHT22;22475;51.390;7.180;2023-11-21T07:54:59;13.40;91.10
36450;DHT22;22475;51.390;7.180;2023-11-21T07:57:27;13.30;91.10
36450;DHT22;22475;51.390;7.180;2023-11-21T07:59:53;13.40;91.20
36450;DHT22;22475;51.390;7.180;2023-11-21T08:02:20;13.30;91.20
36450;DHT22;22475;51.390;7.180;2023-11-21T08:04:47;13.30;91.30
36450;DHT22;22475;51.390;7.180;2023-11-21T08:07:16;13.40;91.40
36450;DHT22;22475;51.390;7.180;2023-11-21T08:09:43;13.40;91.50
36450;DHT22;22475;51.390;7.180;2023-11-21T08:12:12;13.40;91.50
36450;DHT22;22475;51.390;7.180;2023-11-21T08:14:38;13.40;91.60
36450;DHT22;22475;51.390;7.180;2023-11-21T08:17:06;13.40;92.00
36450;DHT22;22475;51.390;7.180;2023-11-21T08:19:35;13.40;91.70
36450;DHT22;22475;51.390;7.180;2023-11-21T08:22:02;13.40;91.80
36450;DHT22;22475;51.390;7.180;2023-11-21T08:24:30;13.40;92.00
36450;DHT22;22475;51.390;7.180;2023-11-21T08:26:57;13.40;92.10
36450;DHT22;22475;51.390;7.180;2023-11-21T08:29:24;13.40;92.10
36450;DHT22;22475;51.390;7.180;2023-11-21T08:31:51;13.40;92.10
36450;DHT22;22475;51.390;7.180;2023-11-21T08:34:17;13.50;92.10
36450;DHT22;22475;51.390;7.180;2023-11-21T08:36:44;13.40;92.00
36450;DHT22;22475;51.390;7.180;2023-11-21T08:39:11;13.40;92.00
36450;DHT22;22475;51.390;7.180;2023-11-21T08:41:40;13.40;92.00
36450;DHT22;22475;51.390;7.180;2023-11-21T08:44:06;13.50;92.00
36450;DHT22;22475;51.390;7.180;2023-11-21T08:46:33;13.40;92.00
36450;DHT22;22475;51.390;7.180;2023-11-21T08:49:02;13.50;92.00
36450;DHT22;22475;51.390;7.180;2023-11-21T08:51:29;13.40;91.90
36450;DHT22;22475;51.390;7.180;2023-11-21T08:53:56;13.50;91.90
36450;DHT22;22475;51.390;7.180;2023-11-21T08:56:25;13.40;91.90
36450;DHT22;22475;51.390;7.180;2023-11-21T08:58:53;13.50;91.90
36450;DHT22;22475;51.390;7.180;2023-11-21T09:01:20;13.50;92.00
36450;DHT22;22475;51.390;7.180;2023-11-21T09:03:46;13.50;92.10
36450;DHT22;22475;51.390;7.180;2023-11-21T09:06:15;13.50;92.20
36450;DHT22;22475;51.390;7.180;2023-11-21T09:08:42;13.50;92.20
36450;DHT22;22475;51.390;7.180;2023-11-21T09:11:09;13.50;92.30
36450;DHT22;22475;51.390;7.180;2023-11-21T09:13:35;13.50;92.30
36450;DHT22;22475;51.390;7.180;2023-11-21T09:16:05;13.50;92.30
36450;DHT22;22475;51.390;7.180;2023-11-21T09:18:32;13.50;92.40
36450;DHT22;22475;51.390;7.180;2023-11-21T09:20:59;13.50;92.40
36450;DHT22;22475;51.390;7.180;2023-11-21T09:23:26;13.60;92.50
36450;DHT22;22475;51.390;7.180;2023-11-21T09:25:53;13.50;92.60
36450;DHT22;22475;51.390;7.180;2023-11-21T09:28:22;13.50;92.60
36450;DHT22;22475;51.390;7.180;2023-11-21T09:30:49;13.50;92.60
36450;DHT22;22475;51.390;7.180;2023-11-21T09:33:17;13.50;92.60
36450;DHT22;22475;51.390;7.180;2023-11-21T09:35:44;13.50;92.50
36450;DHT22;22475;51.390;7.180;2023-11-21T09:38:11;13.50;92.40
36450;DHT22;22475;51.390;7.180;2023-11-21T09:40:38;13.50;92.50
36450;DHT22;22475;51.390;7.180;2023-11-21T09:43:07;13.50;92.50
36450;DHT22;22475;51.390;7.180;2023-11-21T09:45:35;13.60;92.60
36450;DHT22;22475;51.390;7.180;2023-11-21T09:48:02;13.50;92.50
36450;DHT22;22475;51.390;7.180;2023-11-21T09:50:31;13.60;92.60
36450;DHT22;22475;51.390;7.180;2023-11-21T09:53:09;13.60;92.60
36450;DHT22;22475;51.390;7.180;2023-11-21T09:55:42;13.60;92.70
36450;DHT22;22475;51.390;7.180;2023-11-21T09:58:10;13.60;92.70
36450;DHT22;22475;51.390;7.180;2023-11-21T10:00:40;13.60;92.70
36450;DHT22;22475;51.390;7.180;2023-11-21T10:03:07;13.60;92.80
36450;DHT22;22475;51.390;7.180;2023-11-21T10:05:36;13.50;93.00
36450;DHT22;22475;51.390;7.180;2023-11-21T10:08:06;13.60;92.60
36450;DHT22;22475;51.390;7.180;2023-11-21T10:10:35;13.60;92.70
36450;DHT22;22475;51.390;7.180;2023-11-21T10:13:04;13.60;92.70
36450;DHT22;22475;51.390;7.180;2023-11-21T10:15:33;13.60;92.70
36450;DHT22;22475;51.390;7.180;2023-11-21T10:18:02;13.60;92.70
36450;DHT22;22475;51.390;7.180;2023-11-21T10:20:32;13.60;92.70
36450;DHT22;22475;51.390;7.180;2023-11-21T10:23:01;13.60;92.70
36450;DHT22;22475;51.390;7.180;2023-11-21T10:25:29;13.60;92.80
36450;DHT22;22475;51.390;7.180;2023-11-21T10:27:58;13.60;92.80
36450;DHT22;22475;51.390;7.180;2023-11-21T10:30:28;13.60;92.80
36450;DHT22;22475;51.390;7.180;2023-11-21T10:32:59;13.60;92.80
36450;DHT22;22475;51.390;7.180;2023-11-21T10:35:39;13.60;92.90
36450;DHT22;22475;51.390;7.180;2023-11-21T10:38:07;13.60;93.00
36450;DHT22;22475;51.390;7.180;2023-11-21T10:40:38;13.60;92.90
36450;DHT22;22475;51.390;7.180;2023-11-21T10:43:07;13.60;92.80
36450;DHT22;22475;51.390;7.180;2023-11-21T10:45:35;13.60;92.90
36450;DHT22;22475;51.390;7.180;2023-11-21T10:48:05;13.60;92.90
36450;DHT22;22475;51.390;7.180;2023-11-21T10:50:33;13.60;92.80
36450;DHT22;22475;51.390;7.180;2023-11-21T10:53:01;13.60;92.90
36450;DHT22;22475;51.390;7.180;2023-11-21T10:55:31;13.60;93.00
36450;DHT22;22475;51.390;7.180;2023-11-21T10:57:59;13.70;93.00
36450;DHT22;22475;51.390;7.180;2023-11-21T11:00:28;13.70;92.90
36450;DHT22;22475;51.390;7.180;2023-11-21T11:02:56;13.70;92.90
36450;DHT22;22475;51.390;7.180;2023-11-21T11:05:25;13.70;92.80
36450;DHT22;22475;51.390;7.180;2023-11-21T11:07:57;13.70;92.80
36450;DHT22;22475;51.390;7.180;2023-11-21T11:10:25;13.70;92.80
36450;DHT22;22475;51.390;7.180;2023-11-21T11:12:54;13.70;92.90
36450;DHT22;22475;51.390;7.180;2023-11-21T11:15:23;13.70;92.90
36450;DHT22;22475;51.390;7.180;2023-11-21T11:17:50;13.70;93.00
36450;DHT22;22475;51.390;7.180;2023-11-21T11:20:17;13.70;93.10
36450;DHT22;22475;51.390;7.180;2023-11-21T11:22:54;13.70;93.10
36450;DHT22;22475;51.390;7.180;2023-11-21T11:25:41;13.70;93.20
36450;DHT22;22475;51.390;7.180;2023-11-21T11:28:17;13.70;93.30
36450;DHT22;22475;51.390;7.180;2023-11-21T11:30:54;13.70;93.20
36450;DHT22;22475;51.390;7.180;2023-11-21T11:33:31;13.70;93.10
36450;DHT22;22475;51.390;7.180;2023-11-21T11:36:03;13.70;93.10
36450;DHT22;22475;51.390;7.180;2023-11-21T11:38:32;13.80;93.10
36450;DHT22;22475;51.390;7.180;2023-11-21T11:41:02;13.70;93.20
36450;DHT22;22475;51.390;7.180;2023-11-21T11:43:32;13.80;93.20
36450;DHT22;22475;51.390;7.180;2023-11-21T11:46:05;13.80;93.30
36450;DHT22;22475;51.390;7.180;2023-11-21T11:48:35;13.80;93.20
36450;DHT22;22475;51.390;7.180;2023-11-21T11:51:04;13.80;93.20
36450;DHT22;22475;51.390;7.180;2023-11-21T11:53:37;13.80;93.20
36450;DHT22;22475;51.390;7.180;2023-11-21T11:56:23;13.80;93.30
36450;DHT22;22475;51.390;7.180;2023-11-21T11:58:54;13.80;93.20
36450;DHT22;22475;51.390;7.180;2023-11-21T12:01:22;13.80;93.10
36450;DHT22;22475;51.390;7.180;2023-11-21T12:04:23;13.80;93.20
36450;DHT22;22475;51.390;7.180;2023-11-21T12:06:55;13.80;93.20
36450;DHT22;22475;51.390;7.180;2023-11-21T12:09:24;13.80;93.20
36450;DHT22;22475;51.390;7.180;2023-11-21T12:11:52;13.80;93.30
36450;DHT22;22475;51.390;7.180;2023-11-21T12:14:21;13.80;93.30
36450;DHT22;22475;51.390;7.180;2023-11-21T12:16:49;13.80;93.40
36450;DHT22;22475;51.390;7.180;2023-11-21T12:19:17;13.80;93.30
36450;DHT22;22475;51.390;7.180;2023-11-21T12:21:44;13.80;93.30
36450;DHT22;22475;51.390;7.180;2023-11-21T12:24:11;13.80;93.20
36450;DHT22;22475;51.390;7.180;2023-11-21T12:26:39;13.80;93.20
36450;DHT22;22475;51.390;7.180;2023-11-21T12:29:06;13.80;93.20
36450;DHT22;22475;51.390;7.180;2023-11-21T12:31:34;13.80;93.20
36450;DHT22;22475;51.390;7.180;2023-11-21T12:34:01;13.80;93.20
36450;DHT22;22475;51.390;7.180;2023-11-21T12:36:29;13.80;93.30
36450;DHT22;22475;51.390;7.180;2023-11-21T12:38:56;13.90;93.30
36450;DHT22;22475;51.390;7.180;2023-11-21T12:41:23;13.80;93.20
36450;DHT22;22475;51.390;7.180;2023-11-21T12:43:49;13.80;93.30
36450;DHT22;22475;51.390;7.180;2023-11-21T12:46:16;13.80;93.20
36450;DHT22;22475;51.390;7.180;2023-11-21T12:48:45;13.80;93.30
36450;DHT22;22475;51.390;7.180;2023-11-21T12:51:12;13.80;93.40
36450;DHT22;22475;51.390;7.180;2023-11-21T12:53:41;13.80;93.50
36450;DHT22;22475;51.390;7.180;2023-11-21T12:56:10;13.80;93.50
36450;DHT22;22475;51.390;7.180;2023-11-21T12:58:37;13.80;93.50
36450;DHT22;22475;51.390;7.180;2023-11-21T13:01:06;13.80;93.50
36450;DHT22;22475;51.390;7.180;2023-11-21T13:03:37;13.80;93.50
36450;DHT22;22475;51.390;7.180;2023-11-21T13:06:07;13.80;93.50
36450;DHT22;22475;51.390;7.180;2023-11-21T13:08:34;13.80;93.60
36450;DHT22;22475;51.390;7.180;2023-11-21T13:11:05;13.80;93.70
36450;DHT22;22475;51.390;7.180;2023-11-21T13:13:32;13.80;93.70
36450;DHT22;22475;51.390;7.180;2023-11-21T13:16:01;13.80;93.70
36450;DHT22;22475;51.390;7.180;2023-11-21T13:18:30;13.80;93.70
36450;DHT22;22475;51.390;7.180;2023-11-21T13:20:58;13.70;93.60
36450;DHT22;22475;51.390;7.180;2023-11-21T13:23:27;13.70;93.60
36450;DHT22;22475;51.390;7.180;2023-11-21T13:25:55;13.80;93.70
36450;DHT22;22475;51.390;7.180;2023-11-21T13:28:21;13.70;93.70
36450;DHT22;22475;51.390;7.180;2023-11-21T13:30:50;13.70;93.60
36450;DHT22;22475;51.390;7.180;2023-11-21T13:33:18;13.70;93.60
36450;DHT22;22475;51.390;7.180;2023-11-21T13:35:47;13.70;93.50
36450;DHT22;22475;51.390;7.180;2023-11-21T13:38:17;13.70;93.40
36450;DHT22;22475;51.390;7.180;2023-11-21T13:40:51;13.70;93.40
36450;DHT22;22475;51.390;7.180;2023-11-21T13:43:20;13.70;93.30
36450;DHT22;22475;51.390;7.180;2023-11-21T13:45:48;13.70;93.30
36450;DHT22;22475;51.390;7.180;2023-11-21T13:48:17;13.70;93.30
36450;DHT22;22475;51.390;7.180;2023-11-21T13:50:53;13.70;93.30
36450;DHT22;22475;51.390;7.180;2023-11-21T13:53:24;13.70;93.30
36450;DHT22;22475;51.390;7.180;2023-11-21T13:55:53;13.70;93.40
36450;DHT22;22475;51.390;7.180;2023-11-21T13:58:23;13.70;93.30
36450;DHT22;22475;51.390;7.180;2023-11-21T14:01:00;13.70;93.20
36450;DHT22;22475;51.390;7.180;2023-11-21T14:03:27;13.70;93.20
36450;DHT22;22475;51.390;7.180;2023-11-21T14:06:05;13.70;93.20
36450;DHT22;22475;51.390;7.180;2023-11-21T14:08:39;13.70;93.20
36450;DHT22;22475;51.390;7.180;2023-11-21T14:11:08;13.70;93.20
36450;DHT22;22475;51.390;7.180;2023-11-21T14:13:36;13.70;93.30
36450;DHT22;22475;51.390;7.180;2023-11-21T14:16:03;13.70;93.20
36450;DHT22;22475;51.390;7.180;2023-11-21T14:18:32;13.70;93.30
36450;DHT22;22475;51.390;7.180;2023-11-21T14:21:04;13.70;93.30
36450;DHT22;22475;51.390;7.180;2023-11-21T14:23:31;13.70;93.20
36450;DHT22;22475;51.390;7.180;2023-11-21T14:26:01;13.70;93.20
36450;DHT22;22475;51.390;7.180;2023-11-21T14:28:29;13.70;93.30
36450;DHT22;22475;51.390;7.180;2023-11-21T14:30:56;13.70;93.30
36450;DHT22;22475;51.390;7.180;2023-11-21T14:33:22;13.80;93.40
36450;DHT22;22475;51.390;7.180;2023-11-21T14:35:49;13.70;93.40
36450;DHT22;22475;51.390;7.180;2023-11-21T14:38:16;13.70;93.40
36450;DHT22;22475;51.390;7.180;2023-11-21T14:40:43;13.70;93.40
36450;DHT22;22475;51.390;7.180;2023-11-21T14:43:10;13.70;93.30
36450;DHT22;22475;51.390;7.180;2023-11-21T14:45:39;13.70;93.30
36450;DHT22;22475;51.390;7.180;2023-11-21T14:48:06;13.70;93.20
36450;DHT22;22475;51.390;7.180;2023-11-21T14:50:41;13.70;93.20
36450;DHT22;22475;51.390;7.180;2023-11-21T14:53:17;13.70;93.20
36450;DHT22;22475;51.390;7.180;2023-11-21T14:56:03;13.70;93.20
36450;DHT22;22475;51.390;7.180;2023-11-21T14:58:30;13.80;93.10
36450;DHT22;22475;51.390;7.180;2023-11-21T15:00:58;13.70;93.00
36450;DHT22;22475;51.390;7.180;2023-11-21T15:03:27;13.70;93.00
36450;DHT22;22475;51.390;7.180;2023-11-21T15:06:15;13.70;92.90
36450;DHT22;22475;51.390;7.180;2023-11-21T15:08:56;13.70;92.80
36450;DHT22;22475;51.390;7.180;2023-11-21T15:11:46;13.70;92.70
36450;DHT22;22475;51.390;7.180;2023-11-21T15:14:13;13.70;92.50
36450;DHT22;22475;51.390;7.180;2023-11-21T15:16:47;13.70;92.40
36450;DHT22;22475;51.390;7.180;2023-11-21T15:19:18;13.70;92.30
36450;DHT22;22475;51.390;7.180;2023-11-21T15:21:50;13.70;92.10
36450;DHT22;22475;51.390;7.180;2023-11-21T15:24:17;13.70;91.90
36450;DHT22;22475;51.390;7.180;2023-11-21T15:26:44;13.70;91.70
36450;DHT22;22475;51.390;7.180;2023-11-21T15:29:11;13.70;91.50
36450;DHT22;22475;51.390;7.180;2023-11-21T15:31:39;13.70;91.40
36450;DHT22;22475;51.390;7.180;2023-11-21T15:34:10;13.70;91.30
36450;DHT22;22475;51.390;7.180;2023-11-21T15:36:37;13.70;91.10